createdAt,value
2018-04-15T00:00:07.361Z,11.50
2018-04-15T00:02:35.099Z,11.50
2018-04-15T00:05:02.611Z,11.60
2018-04-15T00:07:31.210Z,11.50
2018-04-15T00:09:58.846Z,11.50
2018-04-15T00:12:26.359Z,11.40
2018-04-15T00:14:53.887Z,11.40
2018-04-15T00:17:23.531Z,11.40
2018-04-15T00:19:51.011Z,11.40
2018-04-15T00:22:18.543Z,11.40
2018-04-15T00:24:46.041Z,11.30
2018-04-15T00:27:13.684Z,11.30
2018-04-15T00:29:41.185Z,11.20
2018-04-15T00:32:09.466Z,11.10
2018-04-15T00:34:37.808Z,11.00
2018-04-15T00:37:05.427Z,11.00
2018-04-15T00:39:33.786Z,10.90
2018-04-15T00:42:02.073Z,10.80
2018-04-15T00:44:30.965Z,10.80
2018-04-15T00:47:00.066Z,10.70
2018-04-15T00:49:30.420Z,10.60
2018-04-15T00:51:57.923Z,10.60
2018-04-15T00:54:26.275Z,10.60
2018-04-15T00:56:53.799Z,10.60
2018-04-15T00:59:21.321Z,10.60
2018-04-15T01:01:48.822Z,10.60
2018-04-15T01:04:16.332Z,10.50
2018-04-15T01:06:43.842Z,10.50
2018-04-15T01:09:11.367Z,10.40
2018-04-15T01:11:38.855Z,10.40
2018-04-15T01:14:06.350Z,10.40
2018-04-15T01:16:34.619Z,10.30
2018-04-15T01:19:02.157Z,10.30
2018-04-15T01:21:29.641Z,10.30
2018-04-15T01:23:58.657Z,10.20
2018-04-15T01:26:27.464Z,10.30
2018-04-15T01:28:55.000Z,10.20
2018-04-15T01:31:22.503Z,10.30
2018-04-15T01:33:50.035Z,10.20
2018-04-15T01:36:18.314Z,10.20
2018-04-15T01:38:45.841Z,10.20
2018-04-15T01:41:13.383Z,10.20
2018-04-15T01:43:40.874Z,10.30
2018-04-15T01:46:08.378Z,10.20
2018-04-15T01:48:36.654Z,10.30
2018-04-15T01:51:04.910Z,10.30
2018-04-15T01:53:33.917Z,10.30
2018-04-15T01:56:02.177Z,10.20
2018-04-15T01:58:29.869Z,10.30
2018-04-15T02:00:57.382Z,10.30
2018-04-15T02:03:24.889Z,10.30
2018-04-15T02:05:53.366Z,10.20
2018-04-15T02:08:22.399Z,10.20
2018-04-15T02:10:50.647Z,10.30
2018-04-15T02:13:19.723Z,10.30
2018-04-15T02:15:47.216Z,10.30
2018-04-15T02:18:14.703Z,10.30
2018-04-15T02:20:42.243Z,10.30
2018-04-15T02:23:10.533Z,10.30
2018-04-15T02:25:38.045Z,10.30
2018-04-15T02:28:05.541Z,10.30
2018-04-15T02:30:33.051Z,10.30
2018-04-15T02:33:00.547Z,10.30
2018-04-15T02:35:28.062Z,10.30
2018-04-15T02:37:56.329Z,10.30
2018-04-15T02:40:24.631Z,10.30
2018-04-15T02:42:52.157Z,10.30
2018-04-15T02:45:19.672Z,10.30
2018-04-15T02:47:47.174Z,10.30
2018-04-15T02:50:14.792Z,10.20
2018-04-15T02:52:42.286Z,10.20
2018-04-15T02:55:09.803Z,10.20
2018-04-15T02:57:38.068Z,10.20
2018-04-15T03:00:05.578Z,10.20
2018-04-15T03:02:33.069Z,10.30
2018-04-15T03:05:00.594Z,10.30
2018-04-15T03:07:28.099Z,10.30
2018-04-15T03:09:55.660Z,10.30
2018-04-15T03:12:23.170Z,10.30
2018-04-15T03:14:50.673Z,10.40
2018-04-15T03:17:18.173Z,10.40
2018-04-15T03:19:46.441Z,10.50
2018-04-15T03:22:13.989Z,10.50
2018-04-15T03:24:41.508Z,10.50
2018-04-15T03:27:09.759Z,10.50
2018-04-15T03:29:38.508Z,10.50
2018-04-15T03:32:06.272Z,10.50
2018-04-15T03:34:33.796Z,10.40
2018-04-15T03:37:02.058Z,10.40
2018-04-15T03:39:29.569Z,10.40
2018-04-15T03:41:57.068Z,10.50
2018-04-15T03:44:24.580Z,10.50
2018-04-15T03:46:52.124Z,10.50
2018-04-15T03:49:19.745Z,10.50
2018-04-15T03:51:47.237Z,10.50
2018-04-15T03:54:16.299Z,10.50
2018-04-15T03:56:43.793Z,10.50
2018-04-15T03:59:13.335Z,10.50
2018-04-15T04:01:41.611Z,10.50
2018-04-15T04:04:10.671Z,10.50
2018-04-15T04:06:38.188Z,10.50
2018-04-15T04:09:05.697Z,10.60
2018-04-15T04:11:33.232Z,10.50
2018-04-15T04:14:00.730Z,10.50
2018-04-15T04:16:28.251Z,10.50
2018-04-15T04:19:08.207Z,10.40
2018-04-15T04:21:48.355Z,10.40
2018-04-15T04:24:27.939Z,10.40
2018-04-15T04:26:56.203Z,10.40
2018-04-15T04:29:23.723Z,10.40
2018-04-15T04:31:52.000Z,10.40
2018-04-15T04:34:20.265Z,10.40
2018-04-15T04:36:48.558Z,10.40
2018-04-15T04:39:16.997Z,10.50
2018-04-15T04:41:44.525Z,10.40
2018-04-15T04:44:12.028Z,10.50
2018-04-15T04:46:39.551Z,10.50
2018-04-15T04:49:07.055Z,10.50
2018-04-15T04:51:34.569Z,10.50
2018-04-15T04:54:02.073Z,10.60
2018-04-15T04:56:29.623Z,10.60
2018-04-15T04:58:57.125Z,10.60
2018-04-15T05:01:24.628Z,10.70
2018-04-15T05:03:52.142Z,10.70
2018-04-15T05:06:19.661Z,10.80
2018-04-15T05:08:47.163Z,10.80
2018-04-15T05:11:14.674Z,10.90
2018-04-15T05:13:42.178Z,10.90
2018-04-15T05:16:09.808Z,10.90
2018-04-15T05:18:37.317Z,11.00
2018-04-15T05:21:04.873Z,11.00
2018-04-15T05:23:32.377Z,11.10
2018-04-15T05:26:00.659Z,11.20
2018-04-15T05:28:28.157Z,11.20
2018-04-15T05:30:56.025Z,11.30
2018-04-15T05:33:23.655Z,11.30
2018-04-15T05:35:51.918Z,11.50
2018-04-15T05:38:20.175Z,11.50
2018-04-15T05:40:47.693Z,11.50
2018-04-15T05:43:15.307Z,11.60
2018-04-15T05:45:42.843Z,11.70
2018-04-15T05:48:10.329Z,11.80
2018-04-15T05:50:37.829Z,11.80
2018-04-15T05:53:05.469Z,11.90
2018-04-15T05:55:32.973Z,12.00
2018-04-15T05:58:01.281Z,12.10
2018-04-15T06:00:28.787Z,12.10
2018-04-15T06:02:56.325Z,12.20
2018-04-15T06:05:23.842Z,12.30
2018-04-15T06:07:52.322Z,12.50
2018-04-15T06:10:19.823Z,12.50
2018-04-15T06:12:47.353Z,12.70
2018-04-15T06:15:15.627Z,13.30
2018-04-15T06:17:43.894Z,13.60
2018-04-15T06:20:12.914Z,13.90
2018-04-15T06:22:41.206Z,14.20
2018-04-15T06:25:08.704Z,14.20
2018-04-15T06:27:36.632Z,14.30
2018-04-15T06:30:05.696Z,14.40
2018-04-15T06:32:33.227Z,14.30
2018-04-15T06:35:00.729Z,14.20
2018-04-15T06:37:28.270Z,14.00
2018-04-15T06:39:57.037Z,14.00
2018-04-15T06:42:25.361Z,14.10
2018-04-15T06:44:52.891Z,14.20
2018-04-15T06:47:20.427Z,14.30
2018-04-15T06:49:48.831Z,14.50
2018-04-15T06:52:16.461Z,14.40
2018-04-15T06:54:43.967Z,14.40
2018-04-15T06:57:11.473Z,14.40
2018-04-15T06:59:38.966Z,14.50
2018-04-15T07:02:07.239Z,14.70
2018-04-15T07:04:35.483Z,14.70
2018-04-15T07:07:03.009Z,14.70
2018-04-15T07:09:30.577Z,14.90
2018-04-15T07:11:58.086Z,15.20
2018-04-15T07:14:25.579Z,15.50
2018-04-15T07:16:53.855Z,16.00
2018-04-15T07:19:22.123Z,16.00
2018-04-15T07:21:49.710Z,16.00
2018-04-15T07:24:18.081Z,16.20
2018-04-15T07:26:46.359Z,16.10
2018-04-15T07:29:14.623Z,16.10
2018-04-15T07:31:43.637Z,16.20
2018-04-15T07:34:11.913Z,16.40
2018-04-15T07:36:39.496Z,16.40
2018-04-15T07:39:07.802Z,16.60
2018-04-15T07:41:36.348Z,16.50
2018-04-15T07:44:03.853Z,16.50
2018-04-15T07:46:31.383Z,16.40
2018-04-15T07:48:59.647Z,16.40
2018-04-15T07:51:27.413Z,16.40
2018-04-15T07:53:55.173Z,16.50
2018-04-15T07:56:26.297Z,16.60
2018-04-15T07:58:53.811Z,16.80
2018-04-15T08:01:22.093Z,17.10
2018-04-15T08:03:50.365Z,17.20
2018-04-15T08:06:17.867Z,17.20
2018-04-15T08:08:45.386Z,17.20
2018-04-15T08:11:13.823Z,17.10
2018-04-15T08:13:41.347Z,17.10
2018-04-15T08:16:09.615Z,17.00
2018-04-15T08:18:37.147Z,17.00
2018-04-15T08:21:04.649Z,17.00
2018-04-15T08:23:32.922Z,17.00
2018-04-15T08:26:00.459Z,16.90
2018-04-15T08:28:27.954Z,16.90
2018-04-15T08:30:56.213Z,17.10
2018-04-15T08:33:23.759Z,17.10
2018-04-15T08:35:51.299Z,17.30
2018-04-15T08:38:18.793Z,17.30
2018-04-15T08:40:46.278Z,17.40
2018-04-15T08:43:13.839Z,17.50
2018-04-15T08:45:41.342Z,17.60
2018-04-15T08:48:08.918Z,17.70
2018-04-15T08:50:37.666Z,17.70
2018-04-15T08:53:05.939Z,17.90
2018-04-15T08:55:35.723Z,18.00
2018-04-15T08:58:04.081Z,18.10
2018-04-15T09:00:31.578Z,18.10
2018-04-15T09:02:59.251Z,18.10
2018-04-15T09:05:26.936Z,18.20
2018-04-15T09:07:54.850Z,18.30
2018-04-15T09:10:22.473Z,18.30
2018-04-15T09:12:49.991Z,18.30
2018-04-15T09:15:18.690Z,18.30
2018-04-15T09:17:46.186Z,18.30
2018-04-15T09:20:13.668Z,18.20
2018-04-15T09:22:41.984Z,18.30
2018-04-15T09:25:09.497Z,18.20
2018-04-15T09:27:37.776Z,18.40
2018-04-15T09:30:05.310Z,18.60
2018-04-15T09:32:32.833Z,18.70
2018-04-15T09:35:01.947Z,18.90
2018-04-15T09:37:29.540Z,18.90
2018-04-15T09:39:57.920Z,19.00
2018-04-15T09:42:25.424Z,19.10
2018-04-15T09:44:53.037Z,19.10
2018-04-15T09:47:20.646Z,19.20
2018-04-15T09:49:49.164Z,19.20
2018-04-15T09:52:17.416Z,19.30
2018-04-15T09:54:45.692Z,19.30
2018-04-15T09:57:13.161Z,19.30
2018-04-15T09:59:41.461Z,19.40
2018-04-15T10:02:09.736Z,19.50
2018-04-15T10:04:37.999Z,19.60
2018-04-15T10:07:05.649Z,19.60
2018-04-15T10:09:34.722Z,19.70
2018-04-15T10:12:02.246Z,19.90
2018-04-15T10:14:30.528Z,19.90
2018-04-15T10:16:58.879Z,20.00
2018-04-15T10:19:26.381Z,19.90
2018-04-15T10:21:55.658Z,19.90
2018-04-15T10:24:23.179Z,19.90
2018-04-15T10:26:52.243Z,20.00
2018-04-15T10:29:20.490Z,20.50
2018-04-15T10:31:47.987Z,20.40
2018-04-15T10:34:16.301Z,20.70
2018-04-15T10:36:43.796Z,20.70
2018-04-15T10:39:11.316Z,20.80
2018-04-15T10:41:38.852Z,20.80
2018-04-15T10:44:07.136Z,20.80
2018-04-15T10:46:35.409Z,20.80
2018-04-15T10:49:03.733Z,20.80
2018-04-15T10:51:31.263Z,20.80
2018-04-15T10:53:59.619Z,20.80
2018-04-15T10:56:27.217Z,20.80
2018-04-15T10:58:55.644Z,20.90
2018-04-15T11:01:23.137Z,20.90
2018-04-15T11:03:50.641Z,21.00
2018-04-15T11:06:18.150Z,21.10
2018-04-15T11:08:45.710Z,21.10
2018-04-15T11:11:13.209Z,21.10
2018-04-15T11:13:41.526Z,21.10
2018-04-15T11:16:09.008Z,21.10
2018-04-15T11:18:36.528Z,21.00
2018-04-15T11:21:04.806Z,21.20
2018-04-15T11:23:33.104Z,21.30
2018-04-15T11:26:00.742Z,21.20
2018-04-15T11:28:29.033Z,21.70
2018-04-15T11:30:57.315Z,21.80
2018-04-15T11:33:24.889Z,21.70
2018-04-15T11:35:52.413Z,21.80
2018-04-15T11:38:19.929Z,22.00
2018-04-15T11:40:47.514Z,22.00
2018-04-15T11:43:15.025Z,22.10
2018-04-15T11:45:43.285Z,22.10
2018-04-15T11:48:10.783Z,22.10
2018-04-15T11:50:38.278Z,22.10
2018-04-15T11:53:06.029Z,22.10
2018-04-15T11:55:33.616Z,22.10
2018-04-15T11:58:01.104Z,22.30
2018-04-15T12:00:28.611Z,22.40
2018-04-15T12:02:56.119Z,22.40
2018-04-15T12:05:23.650Z,22.40
2018-04-15T12:07:51.126Z,22.40
2018-04-15T12:10:18.622Z,22.30
2018-04-15T12:12:46.148Z,22.20
2018-04-15T12:15:13.659Z,22.20
2018-04-15T12:17:41.222Z,22.30
2018-04-15T12:20:08.749Z,22.20
2018-04-15T12:22:36.253Z,22.20
2018-04-15T12:25:03.760Z,22.10
2018-04-15T12:27:31.274Z,22.20
2018-04-15T12:29:59.617Z,22.30
2018-04-15T12:32:27.136Z,22.30
2018-04-15T12:34:55.404Z,22.40
2018-04-15T12:37:23.676Z,22.40
2018-04-15T12:39:51.152Z,22.30
2018-04-15T12:42:18.680Z,22.30
2018-04-15T12:44:46.189Z,22.30
2018-04-15T12:47:14.472Z,22.20
2018-04-15T12:49:41.981Z,22.20
2018-04-15T12:52:09.519Z,22.30
2018-04-15T12:54:37.092Z,22.50
2018-04-15T12:57:04.736Z,22.60
2018-04-15T12:59:33.021Z,22.60
2018-04-15T13:02:01.338Z,22.70
2018-04-15T13:04:28.828Z,22.60
2018-04-15T13:06:56.438Z,22.80
2018-04-15T13:09:23.954Z,23.00
2018-04-15T13:11:51.468Z,23.10
2018-04-15T13:14:19.482Z,23.30
2018-04-15T13:16:46.994Z,23.40
2018-04-15T13:19:14.554Z,23.60
2018-04-15T13:21:43.637Z,23.80
2018-04-15T13:24:11.918Z,23.90
2018-04-15T13:26:39.433Z,23.90
2018-04-15T13:29:07.151Z,23.90
2018-04-15T13:31:35.404Z,24.00
2018-04-15T13:34:02.929Z,24.00
2018-04-15T13:36:30.466Z,24.00
2018-04-15T13:38:58.735Z,23.90
2018-04-15T13:41:26.265Z,23.90
2018-04-15T13:43:54.443Z,23.90
2018-04-15T13:46:22.022Z,23.80
2018-04-15T13:48:49.681Z,23.70
2018-04-15T13:51:17.214Z,23.80
2018-04-15T13:53:44.755Z,23.80
2018-04-15T13:56:12.272Z,23.80
2018-04-15T13:58:39.803Z,23.60
2018-04-15T14:01:07.431Z,23.40
2018-04-15T14:03:35.684Z,23.30
2018-04-15T14:06:04.005Z,23.30
2018-04-15T14:08:32.288Z,23.30
2018-04-15T14:11:00.562Z,23.40
2018-04-15T14:13:28.848Z,23.40
2018-04-15T14:15:57.112Z,23.40
2018-04-15T14:18:25.399Z,23.50
2018-04-15T14:20:52.979Z,23.50
2018-04-15T14:23:21.308Z,23.60
2018-04-15T14:25:48.806Z,23.60
2018-04-15T14:28:17.260Z,23.70
2018-04-15T14:30:44.782Z,23.60
2018-04-15T14:33:12.318Z,23.60
2018-04-15T14:35:40.874Z,23.30
2018-04-15T14:38:09.105Z,23.30
2018-04-15T14:40:37.315Z,23.10
2018-04-15T14:43:04.876Z,23.00
2018-04-15T14:45:32.379Z,22.90
2018-04-15T14:47:59.876Z,22.80
2018-04-15T14:50:28.141Z,22.70
2018-04-15T14:52:56.430Z,22.80
2018-04-15T14:55:23.994Z,22.80
2018-04-15T14:57:52.294Z,22.80
2018-04-15T15:00:19.794Z,22.70
2018-04-15T15:02:47.324Z,22.80
2018-04-15T15:05:14.810Z,22.70
2018-04-15T15:07:42.419Z,22.60
2018-04-15T15:10:10.152Z,22.50
2018-04-15T15:12:37.716Z,22.40
2018-04-15T15:15:05.248Z,22.20
2018-04-15T15:17:32.832Z,22.20
2018-04-15T15:20:00.358Z,22.20
2018-04-15T15:22:27.882Z,22.20
2018-04-15T15:24:58.223Z,22.30
2018-04-15T15:27:25.732Z,22.30
2018-04-15T15:29:53.228Z,22.40
2018-04-15T15:32:20.840Z,22.50
2018-04-15T15:34:48.498Z,22.50
2018-04-15T15:37:16.789Z,22.50
2018-04-15T15:39:45.040Z,22.40
2018-04-15T15:42:12.728Z,22.40
2018-04-15T15:44:41.034Z,22.30
2018-04-15T15:47:08.535Z,22.40
2018-04-15T15:49:36.058Z,22.30
2018-04-15T15:52:05.449Z,22.10
2018-04-15T15:54:33.720Z,22.00
2018-04-15T15:57:02.031Z,22.00
2018-04-15T15:59:29.598Z,22.00
2018-04-15T16:01:57.084Z,22.00
2018-04-15T16:04:24.610Z,22.00
2018-04-15T16:06:52.139Z,21.90
2018-04-15T16:09:19.609Z,21.90
2018-04-15T16:11:47.208Z,21.90
2018-04-15T16:14:14.701Z,21.80
2018-04-15T16:16:42.219Z,21.70
2018-04-15T16:19:10.497Z,21.80
2018-04-15T16:21:38.794Z,22.00
2018-04-15T16:24:06.308Z,22.00
2018-04-15T16:26:33.856Z,22.00
2018-04-15T16:29:01.368Z,21.90
2018-04-15T16:31:29.224Z,21.80
2018-04-15T16:33:57.583Z,21.60
2018-04-15T16:36:25.104Z,21.60
2018-04-15T16:38:52.670Z,21.50
2018-04-15T16:41:20.256Z,21.40
2018-04-15T16:43:48.249Z,21.30
2018-04-15T16:46:15.768Z,21.30
2018-04-15T16:48:43.305Z,21.20
2018-04-15T16:51:11.579Z,21.40
2018-04-15T16:53:40.525Z,21.30
2018-04-15T16:56:11.413Z,21.40
2018-04-15T16:58:38.945Z,21.30
2018-04-15T17:01:07.229Z,21.20
2018-04-15T17:03:34.740Z,21.10
2018-04-15T17:06:03.055Z,20.80
2018-04-15T17:08:30.653Z,20.80
2018-04-15T17:10:58.146Z,20.70
2018-04-15T17:13:26.884Z,20.50
2018-04-15T17:15:54.376Z,20.50
2018-04-15T17:18:21.900Z,20.40
2018-04-15T17:20:49.583Z,20.40
2018-04-15T17:23:17.342Z,20.30
2018-04-15T17:25:44.893Z,20.30
2018-04-15T17:28:12.457Z,20.30
2018-04-15T17:30:40.950Z,20.30
2018-04-15T17:33:08.461Z,20.20
2018-04-15T17:35:36.461Z,20.10
2018-04-15T17:38:04.049Z,20.00
2018-04-15T17:40:31.604Z,20.00
2018-04-15T17:42:59.457Z,19.90
2018-04-15T17:45:28.902Z,19.90
2018-04-15T17:47:56.507Z,19.80
2018-04-15T17:50:25.278Z,19.60
2018-04-15T17:52:52.822Z,19.60
2018-04-15T17:55:20.414Z,19.60
2018-04-15T17:57:47.922Z,19.40
2018-04-15T18:00:15.499Z,19.30
2018-04-15T18:02:43.102Z,19.30
2018-04-15T18:05:10.555Z,19.20
2018-04-15T18:07:38.179Z,19.10
2018-04-15T18:10:06.445Z,19.00
2018-04-15T18:12:34.731Z,18.90
2018-04-15T18:15:02.987Z,18.80
2018-04-15T18:17:30.539Z,18.80
2018-04-15T18:19:58.063Z,18.70
2018-04-15T18:22:25.753Z,18.60
2018-04-15T18:24:53.693Z,18.50
2018-04-15T18:27:21.249Z,18.40
2018-04-15T18:29:48.747Z,18.40
2018-04-15T18:32:16.664Z,18.30
2018-04-15T18:34:45.019Z,18.10
2018-04-15T18:37:14.809Z,18.10
2018-04-15T18:39:43.462Z,18.10
2018-04-15T18:42:11.736Z,18.10
2018-04-15T18:44:40.768Z,18.10
2018-04-15T18:47:09.254Z,18.10
2018-04-15T18:49:38.652Z,18.00
2018-04-15T18:52:07.446Z,17.90
2018-04-15T18:54:35.421Z,17.90
2018-04-15T18:57:02.972Z,18.00
2018-04-15T18:59:31.359Z,17.90
2018-04-15T19:01:59.613Z,17.90
2018-04-15T19:04:27.714Z,17.90
2018-04-15T19:06:56.230Z,17.90
2018-04-15T19:09:24.879Z,17.80
2018-04-15T19:11:53.432Z,17.80
2018-04-15T19:14:21.615Z,17.80
2018-04-15T19:16:49.217Z,17.80
2018-04-15T19:19:17.654Z,17.70
2018-04-15T19:21:45.201Z,17.70
2018-04-15T19:24:12.704Z,17.60
2018-04-15T19:26:40.263Z,17.60
2018-04-15T19:29:07.784Z,17.60
2018-04-15T19:31:35.317Z,17.60
2018-04-15T19:34:03.689Z,17.60
2018-04-15T19:36:31.215Z,17.50
2018-04-15T19:38:58.741Z,17.60
2018-04-15T19:41:27.037Z,17.50
2018-04-15T19:43:56.261Z,17.50
2018-04-15T19:46:23.845Z,17.50
2018-04-15T19:48:51.378Z,17.50
2018-04-15T19:51:19.147Z,17.60
2018-04-15T19:53:46.689Z,17.60
2018-04-15T19:56:14.203Z,17.70
2018-04-15T19:58:41.705Z,17.70
2018-04-15T20:01:10.125Z,17.50
2018-04-15T20:03:37.644Z,17.50
2018-04-15T20:06:06.660Z,17.60
2018-04-15T20:08:34.174Z,17.60
2018-04-15T20:11:02.471Z,17.50
2018-04-15T20:13:29.972Z,17.50
2018-04-15T20:15:57.480Z,17.40
2018-04-15T20:18:25.022Z,17.30
2018-04-15T20:20:52.514Z,17.20
2018-04-15T20:23:20.867Z,17.30
2018-04-15T20:25:48.428Z,17.30
2018-04-15T20:28:15.942Z,17.30
2018-04-15T20:30:44.630Z,17.10
2018-04-15T20:33:12.226Z,17.10
2018-04-15T20:35:40.052Z,16.90
2018-04-15T20:38:07.695Z,16.80
2018-04-15T20:40:35.251Z,16.80
2018-04-15T20:43:02.826Z,16.70
2018-04-15T20:45:30.349Z,16.60
2018-04-15T20:47:59.332Z,16.50
2018-04-15T20:50:28.431Z,16.40
2018-04-15T20:52:55.984Z,16.40
2018-04-15T20:55:23.483Z,16.30
2018-04-15T20:57:51.007Z,16.20
2018-04-15T21:00:18.541Z,16.00
2018-04-15T21:02:46.080Z,15.90
2018-04-15T21:05:13.764Z,15.90
2018-04-15T21:07:41.680Z,15.80
2018-04-15T21:10:10.108Z,15.70
2018-04-15T21:12:37.742Z,15.70
2018-04-15T21:15:07.612Z,15.60
2018-04-15T21:17:35.888Z,15.60
2018-04-15T21:20:03.606Z,15.60
2018-04-15T21:22:31.849Z,15.40
2018-04-15T21:24:59.336Z,15.40
2018-04-15T21:27:26.866Z,15.50
2018-04-15T21:29:54.788Z,15.50
2018-04-15T21:32:23.091Z,15.40
2018-04-15T21:34:50.614Z,15.40
2018-04-15T21:37:18.124Z,15.30
2018-04-15T21:39:45.605Z,15.40
2018-04-15T21:42:13.262Z,15.40
2018-04-15T21:44:40.810Z,15.40
2018-04-15T21:47:08.303Z,15.20
2018-04-15T21:49:35.790Z,15.20
2018-04-15T21:52:03.298Z,15.10
2018-04-15T21:54:30.805Z,15.10
2018-04-15T21:56:58.351Z,15.10
2018-04-15T21:59:25.868Z,15.10
2018-04-15T22:01:54.153Z,14.90
2018-04-15T22:04:21.898Z,14.90
2018-04-15T22:06:49.405Z,14.90
2018-04-15T22:09:16.906Z,14.80
2018-04-15T22:11:56.354Z,14.80
2018-04-15T22:14:24.904Z,14.70
2018-04-15T22:16:53.242Z,14.70
2018-04-15T22:19:21.522Z,14.70
2018-04-15T22:21:49.058Z,14.70
2018-04-15T22:24:16.635Z,14.70
2018-04-15T22:26:44.146Z,14.70
2018-04-15T22:29:11.675Z,14.70
2018-04-15T22:31:39.967Z,14.60
2018-04-15T22:34:08.220Z,14.70
2018-04-15T22:36:35.731Z,14.60
2018-04-15T22:39:03.250Z,14.60
2018-04-15T22:41:30.794Z,14.60
2018-04-15T22:43:58.390Z,14.50
2018-04-15T22:46:26.714Z,14.50
2018-04-15T22:48:55.697Z,14.60
2018-04-15T22:51:23.218Z,14.50
2018-04-15T22:53:50.711Z,14.50
2018-04-15T22:56:18.978Z,14.50
2018-04-15T22:58:47.266Z,14.40
2018-04-15T23:01:16.519Z,14.40
2018-04-15T23:03:44.031Z,14.40
2018-04-15T23:06:12.294Z,14.40
2018-04-15T23:08:39.806Z,14.40
2018-04-15T23:11:07.350Z,14.40
2018-04-15T23:13:35.018Z,14.30
2018-04-15T23:16:03.278Z,14.40
2018-04-15T23:18:30.824Z,14.40
2018-04-15T23:20:59.226Z,14.40
2018-04-15T23:23:27.535Z,14.30
2018-04-15T23:25:55.049Z,14.20
2018-04-15T23:28:22.544Z,14.20
2018-04-15T23:30:50.844Z,14.00
2018-04-15T23:33:18.327Z,14.00
2018-04-15T23:35:45.848Z,13.90
2018-04-15T23:38:14.122Z,13.90
2018-04-15T23:40:42.417Z,13.90
2018-04-15T23:43:10.726Z,13.90
2018-04-15T23:45:38.243Z,13.90
2018-04-15T23:48:05.753Z,13.90
2018-04-15T23:50:33.251Z,13.80
2018-04-15T23:53:01.248Z,13.70
2018-04-15T23:55:28.915Z,13.70
2018-04-15T23:57:56.709Z,13.70
